createdAt,value
2022-09-23T00:01:16.635Z,100.00
2022-09-23T00:03:46.630Z,100.00
2022-09-23T00:06:16.971Z,100.00
2022-09-23T00:08:45.464Z,100.00
2022-09-23T00:11:16.484Z,100.00
2022-09-23T00:13:46.729Z,100.00
2022-09-23T00:16:15.453Z,100.00
2022-09-23T00:18:44.240Z,100.00
2022-09-23T00:21:14.685Z,100.00
2022-09-23T00:23:44.324Z,100.00
2022-09-23T00:26:15.901Z,100.00
2022-09-23T00:28:44.993Z,100.00
2022-09-23T00:31:15.707Z,100.00
2022-09-23T00:33:44.368Z,100.00
2022-09-23T00:36:15.803Z,100.00
2022-09-23T00:38:44.661Z,100.00
2022-09-23T00:41:15.324Z,100.00
2022-09-23T00:43:46.130Z,100.00
2022-09-23T00:46:19.035Z,100.00
2022-09-23T00:48:49.454Z,100.00
2022-09-23T00:51:25.139Z,100.00
2022-09-23T00:53:55.368Z,100.00
2022-09-23T00:56:27.717Z,100.00
2022-09-23T00:58:59.535Z,100.00
2022-09-23T01:01:28.096Z,100.00
2022-09-23T01:03:57.782Z,100.00
2022-09-23T01:06:26.460Z,100.00
2022-09-23T01:08:55.022Z,100.00
2022-09-23T01:11:38.501Z,100.00
2022-09-23T01:14:20.026Z,100.00
2022-09-23T01:16:59.576Z,100.00
2022-09-23T01:19:47.727Z,100.00
2022-09-23T01:22:24.382Z,100.00
2022-09-23T01:25:17.981Z,100.00
2022-09-23T01:28:12.525Z,100.00
2022-09-23T01:30:51.690Z,100.00
2022-09-23T01:33:25.775Z,100.00
2022-09-23T01:36:08.431Z,100.00
2022-09-23T01:38:45.730Z,100.00
2022-09-23T01:41:31.085Z,100.00
2022-09-23T01:44:05.048Z,100.00
2022-09-23T01:46:42.186Z,100.00
2022-09-23T01:49:18.242Z,100.00
2022-09-23T01:51:53.629Z,100.00
2022-09-23T01:54:27.346Z,100.00
2022-09-23T01:57:01.792Z,100.00
2022-09-23T01:59:36.252Z,100.00
2022-09-23T02:02:11.651Z,100.00
2022-09-23T02:04:48.306Z,100.00
2022-09-23T02:07:21.536Z,100.00
2022-09-23T02:09:56.091Z,100.00
2022-09-23T02:12:29.193Z,100.00
2022-09-23T02:15:03.853Z,100.00
2022-09-23T02:17:39.749Z,100.00
2022-09-23T02:20:09.545Z,100.00
2022-09-23T02:22:42.274Z,100.00
2022-09-23T02:25:12.601Z,100.00
2022-09-23T02:27:47.666Z,100.00
2022-09-23T02:30:20.563Z,100.00
2022-09-23T02:32:55.960Z,100.00
2022-09-23T02:35:33.035Z,100.00
2022-09-23T02:38:12.009Z,100.00
2022-09-23T02:40:50.670Z,100.00
2022-09-23T02:43:28.032Z,100.00
2022-09-23T02:45:57.480Z,100.00
2022-09-23T02:48:31.895Z,100.00
2022-09-23T02:51:02.440Z,100.00
2022-09-23T02:53:33.945Z,100.00
2022-09-23T02:56:02.462Z,100.00
2022-09-23T02:58:35.551Z,100.00
2022-09-23T03:01:16.734Z,100.00
2022-09-23T03:03:54.014Z,100.00
2022-09-23T03:06:46.109Z,100.00
2022-09-23T03:09:20.827Z,100.00
2022-09-23T03:11:58.632Z,100.00
2022-09-23T03:14:34.252Z,100.00
2022-09-23T03:17:07.101Z,100.00
2022-09-23T03:19:44.629Z,100.00
2022-09-23T03:22:18.648Z,100.00
2022-09-23T03:24:53.769Z,100.00
2022-09-23T03:27:25.963Z,100.00
2022-09-23T03:29:56.050Z,100.00
2022-09-23T03:32:28.017Z,100.00
2022-09-23T03:35:01.290Z,100.00
2022-09-23T03:37:35.374Z,100.00
2022-09-23T03:40:09.999Z,100.00
2022-09-23T03:42:39.883Z,100.00
2022-09-23T03:45:13.106Z,100.00
2022-09-23T03:47:44.696Z,100.00
2022-09-23T03:50:17.398Z,100.00
2022-09-23T03:52:46.522Z,100.00
2022-09-23T03:55:18.771Z,100.00
2022-09-23T03:57:48.472Z,100.00
2022-09-23T04:00:20.654Z,100.00
2022-09-23T04:02:49.865Z,100.00
2022-09-23T04:05:19.769Z,100.00
2022-09-23T04:07:48.404Z,100.00
2022-09-23T04:10:16.517Z,100.00
2022-09-23T04:12:44.550Z,100.00
2022-09-23T04:15:12.588Z,100.00
2022-09-23T04:17:40.974Z,100.00
2022-09-23T04:20:10.183Z,100.00
2022-09-23T04:22:39.608Z,100.00
2022-09-23T04:25:08.838Z,100.00
2022-09-23T04:27:37.926Z,100.00
2022-09-23T04:30:07.115Z,100.00
2022-09-23T04:32:35.245Z,100.00
2022-09-23T04:35:03.262Z,100.00
2022-09-23T04:37:31.547Z,100.00
2022-09-23T04:40:01.021Z,100.00
2022-09-23T04:42:30.114Z,100.00
2022-09-23T04:44:58.158Z,100.00
2022-09-23T04:47:26.292Z,100.00
2022-09-23T04:49:59.055Z,100.00
2022-09-23T04:52:30.116Z,100.00
2022-09-23T04:55:00.873Z,100.00
2022-09-23T04:57:31.928Z,100.00
2022-09-23T05:00:00.152Z,100.00
2022-09-23T05:02:28.553Z,100.00
2022-09-23T05:04:56.773Z,100.00
2022-09-23T05:07:26.320Z,100.00
2022-09-23T05:09:55.379Z,100.00
2022-09-23T05:12:24.893Z,100.00
2022-09-23T05:14:53.103Z,100.00
2022-09-23T05:17:22.540Z,100.00
2022-09-23T05:19:50.545Z,100.00
2022-09-23T05:22:19.758Z,100.00
2022-09-23T05:24:48.045Z,100.00
2022-09-23T05:27:19.333Z,100.00
2022-09-23T05:29:49.558Z,100.00
2022-09-23T05:32:17.526Z,100.00
2022-09-23T05:34:45.945Z,100.00
2022-09-23T05:37:14.337Z,100.00
2022-09-23T05:39:43.530Z,100.00
2022-09-23T05:42:12.490Z,100.00
2022-09-23T05:44:40.647Z,100.00
2022-09-23T05:47:10.332Z,100.00
2022-09-23T05:49:58.739Z,100.00
2022-09-23T05:52:26.936Z,100.00
2022-09-23T05:54:55.017Z,100.00
2022-09-23T05:57:23.161Z,100.00
2022-09-23T05:59:51.180Z,100.00
2022-09-23T06:02:20.760Z,100.00
2022-09-23T06:04:48.764Z,100.00
2022-09-23T06:07:16.879Z,100.00
2022-09-23T06:09:45.575Z,100.00
2022-09-23T06:12:14.328Z,100.00
2022-09-23T06:14:42.612Z,100.00
2022-09-23T06:17:11.634Z,100.00
2022-09-23T06:19:41.227Z,100.00
2022-09-23T06:22:09.201Z,100.00
2022-09-23T06:24:37.220Z,100.00
2022-09-23T06:27:05.452Z,100.00
2022-09-23T06:29:33.787Z,100.00
2022-09-23T06:32:02.617Z,100.00
2022-09-23T06:34:32.626Z,100.00
2022-09-23T06:37:16.491Z,100.00
2022-09-23T06:39:46.676Z,100.00
2022-09-23T06:42:15.954Z,100.00
2022-09-23T06:44:44.217Z,100.00
2022-09-23T06:47:12.228Z,100.00
2022-09-23T06:49:40.201Z,100.00
2022-09-23T06:52:09.769Z,100.00
2022-09-23T06:54:38.149Z,100.00
2022-09-23T06:57:06.654Z,100.00
2022-09-23T06:59:35.765Z,100.00
2022-09-23T07:02:04.196Z,100.00
2022-09-23T07:04:33.684Z,100.00
2022-09-23T07:07:03.008Z,100.00
2022-09-23T07:09:32.754Z,100.00
2022-09-23T07:12:02.281Z,100.00
2022-09-23T07:14:31.099Z,100.00
2022-09-23T07:17:00.086Z,100.00
2022-09-23T07:19:28.263Z,100.00
2022-09-23T07:21:57.217Z,100.00
2022-09-23T07:24:25.400Z,100.00
2022-09-23T07:26:55.212Z,100.00
2022-09-23T07:29:23.713Z,100.00
2022-09-23T07:31:52.370Z,100.00
2022-09-23T07:34:22.050Z,100.00
2022-09-23T07:36:50.596Z,100.00
2022-09-23T07:39:20.376Z,100.00
2022-09-23T07:41:49.957Z,100.00
2022-09-23T07:44:21.934Z,100.00
2022-09-23T07:46:57.464Z,100.00
2022-09-23T07:49:25.808Z,100.00
2022-09-23T07:51:54.106Z,100.00
2022-09-23T07:54:22.298Z,100.00
2022-09-23T07:56:50.360Z,100.00
2022-09-23T07:59:20.151Z,100.00
2022-09-23T08:01:50.653Z,100.00
2022-09-23T08:04:24.132Z,100.00
2022-09-23T08:06:54.730Z,100.00
2022-09-23T08:09:25.393Z,100.00
2022-09-23T08:11:54.127Z,100.00
2022-09-23T08:14:24.384Z,100.00
2022-09-23T08:16:53.385Z,100.00
2022-09-23T08:19:21.704Z,100.00
2022-09-23T08:21:52.425Z,100.00
2022-09-23T08:24:23.751Z,100.00
2022-09-23T08:26:54.441Z,100.00
2022-09-23T08:29:26.898Z,100.00
2022-09-23T08:31:55.678Z,100.00
2022-09-23T08:34:25.134Z,100.00
2022-09-23T08:36:53.524Z,100.00
2022-09-23T08:39:23.618Z,100.00
2022-09-23T08:42:06.886Z,100.00
2022-09-23T08:44:47.919Z,100.00
2022-09-23T08:47:22.019Z,100.00
2022-09-23T08:49:58.572Z,100.00
2022-09-23T08:52:34.242Z,100.00
2022-09-23T08:55:04.910Z,100.00
2022-09-23T08:57:44.185Z,100.00
2022-09-23T09:00:22.044Z,100.00
2022-09-23T09:02:51.588Z,100.00
2022-09-23T09:05:27.350Z,100.00
2022-09-23T09:07:59.521Z,100.00
2022-09-23T09:10:35.231Z,100.00
2022-09-23T09:13:07.664Z,100.00
2022-09-23T09:15:43.570Z,100.00
2022-09-23T09:18:19.867Z,100.00
2022-09-23T09:20:54.945Z,100.00
2022-09-23T09:23:25.617Z,100.00
2022-09-23T09:25:58.555Z,100.00
2022-09-23T09:28:34.039Z,100.00
2022-09-23T09:31:12.196Z,100.00
2022-09-23T09:33:45.981Z,100.00
2022-09-23T09:36:24.983Z,100.00
2022-09-23T09:38:54.534Z,100.00
2022-09-23T09:41:24.758Z,100.00
2022-09-23T09:43:56.423Z,100.00
2022-09-23T09:46:48.171Z,99.73
2022-09-23T09:49:26.622Z,99.29
2022-09-23T09:52:14.317Z,99.04
2022-09-23T09:54:44.725Z,98.55
2022-09-23T09:57:22.159Z,98.62
2022-09-23T09:59:50.734Z,98.71
2022-09-23T10:02:29.386Z,98.43
2022-09-23T10:05:06.306Z,98.30
2022-09-23T10:07:36.813Z,97.70
2022-09-23T10:10:32.235Z,97.67
2022-09-23T10:13:16.103Z,97.80
2022-09-23T10:15:46.033Z,97.66
2022-09-23T10:18:21.087Z,97.33
2022-09-23T10:20:50.667Z,96.65
2022-09-23T10:23:24.112Z,96.55
2022-09-23T10:26:00.199Z,96.22
2022-09-23T10:28:43.211Z,95.81
2022-09-23T10:31:14.260Z,95.55
2022-09-23T10:33:50.012Z,94.97
2022-09-23T10:36:18.929Z,94.26
2022-09-23T10:38:50.685Z,93.71
2022-09-23T10:41:45.951Z,92.93
2022-09-23T10:44:45.631Z,91.54
2022-09-23T10:47:24.293Z,89.25
2022-09-23T10:50:12.033Z,87.83
2022-09-23T10:52:50.233Z,86.66
2022-09-23T10:55:32.074Z,85.83
2022-09-23T10:58:21.674Z,85.05
2022-09-23T11:01:05.692Z,84.28
2022-09-23T11:04:03.457Z,83.77
2022-09-23T11:06:49.096Z,83.97
2022-09-23T11:09:32.296Z,82.66
2022-09-23T11:12:13.458Z,81.67
2022-09-23T11:14:52.378Z,81.35
2022-09-23T11:17:44.349Z,79.51
2022-09-23T11:20:28.874Z,78.35
2022-09-23T11:23:19.273Z,77.37
2022-09-23T11:26:19.169Z,76.00
2022-09-23T11:29:14.622Z,76.11
2022-09-23T11:31:58.819Z,76.06
2022-09-23T11:35:05.099Z,77.43
2022-09-23T11:37:39.910Z,77.07
2022-09-23T11:40:18.117Z,76.59
2022-09-23T11:42:55.402Z,76.40
2022-09-23T11:45:29.535Z,74.43
2022-09-23T11:48:04.332Z,71.19
2022-09-23T11:50:38.881Z,69.59
2022-09-23T11:53:14.389Z,69.62
2022-09-23T11:55:57.495Z,70.02
2022-09-23T11:58:30.896Z,69.49
2022-09-23T12:01:04.427Z,70.80
2022-09-23T12:03:45.777Z,71.66
2022-09-23T12:06:20.345Z,71.72
2022-09-23T12:08:53.250Z,71.80
2022-09-23T12:11:32.060Z,72.96
2022-09-23T12:14:14.459Z,71.92
2022-09-23T12:17:07.685Z,70.33
2022-09-23T12:20:04.092Z,69.52
2022-09-23T12:22:49.847Z,68.28
2022-09-23T12:25:47.255Z,66.96
2022-09-23T12:28:23.510Z,65.27
2022-09-23T12:30:54.972Z,63.87
2022-09-23T12:33:26.518Z,63.06
2022-09-23T12:35:56.150Z,62.74
2022-09-23T12:38:30.905Z,63.43
2022-09-23T12:40:59.084Z,63.69
2022-09-23T12:43:34.600Z,63.84
2022-09-23T12:46:20.890Z,65.71
2022-09-23T12:49:02.951Z,65.56
2022-09-23T12:51:32.173Z,64.61
2022-09-23T12:54:22.745Z,63.58
2022-09-23T12:57:12.080Z,62.24
2022-09-23T13:00:14.777Z,61.50
2022-09-23T13:03:13.270Z,59.83
2022-09-23T13:06:05.768Z,59.80
2022-09-23T13:08:39.001Z,59.12
2022-09-23T13:11:18.006Z,58.75
2022-09-23T13:13:49.907Z,58.05
2022-09-23T13:16:27.241Z,58.00
2022-09-23T13:18:57.025Z,56.63
2022-09-23T13:22:13.658Z,55.77
2022-09-23T13:24:46.608Z,54.87
2022-09-23T13:27:20.891Z,54.93
2022-09-23T13:29:54.793Z,54.25
2022-09-23T13:32:30.015Z,54.23
2022-09-23T13:35:01.958Z,53.77
2022-09-23T13:37:40.132Z,53.57
2022-09-23T13:40:10.863Z,53.39
2022-09-23T13:42:41.993Z,53.77
2022-09-23T13:45:17.064Z,54.48
2022-09-23T13:47:55.522Z,53.49
2022-09-23T13:50:25.620Z,52.57
2022-09-23T13:52:54.970Z,51.90
2022-09-23T13:55:32.350Z,51.30
2022-09-23T13:58:02.589Z,51.13
2022-09-23T14:00:36.476Z,51.26
2022-09-23T14:03:18.050Z,51.22
2022-09-23T14:05:49.465Z,51.17
2022-09-23T14:08:17.530Z,50.40
2022-09-23T14:10:47.200Z,51.71
2022-09-23T14:13:25.927Z,52.79
2022-09-23T14:15:57.749Z,53.71
2022-09-23T14:18:34.463Z,55.35
2022-09-23T14:21:06.414Z,56.20
2022-09-23T14:23:48.469Z,56.03
2022-09-23T14:26:21.658Z,55.58
2022-09-23T14:28:59.977Z,57.12
2022-09-23T14:31:33.061Z,62.14
2022-09-23T14:34:02.671Z,65.76
2022-09-23T14:36:55.222Z,68.12
2022-09-23T14:39:23.988Z,68.91
2022-09-23T14:41:52.551Z,68.52
2022-09-23T14:44:25.172Z,67.80
2022-09-23T14:46:58.278Z,67.50
2022-09-23T14:49:30.117Z,67.31
2022-09-23T14:52:04.220Z,67.07
2022-09-23T14:54:36.756Z,67.20
2022-09-23T14:57:32.197Z,66.06
2022-09-23T15:00:03.974Z,65.68
2022-09-23T15:02:35.232Z,64.49
2022-09-23T15:05:19.730Z,64.66
2022-09-23T15:08:01.531Z,64.03
2022-09-23T15:10:33.002Z,63.90
2022-09-23T15:13:06.673Z,64.15
2022-09-23T15:15:37.672Z,64.03
2022-09-23T15:18:08.385Z,65.17
2022-09-23T15:20:37.988Z,65.81
2022-09-23T15:23:06.014Z,65.66
2022-09-23T15:25:36.033Z,65.99
2022-09-23T15:28:18.856Z,65.73
2022-09-23T15:30:47.036Z,66.08
2022-09-23T15:33:16.648Z,65.34
2022-09-23T15:35:50.197Z,65.61
2022-09-23T15:38:18.916Z,65.25
2022-09-23T15:40:47.441Z,63.96
2022-09-23T15:43:21.920Z,63.00
2022-09-23T15:45:53.371Z,63.48
2022-09-23T15:48:24.052Z,63.13
2022-09-23T15:50:54.877Z,63.39
2022-09-23T15:53:25.875Z,63.38
2022-09-23T15:55:54.214Z,63.89
2022-09-23T15:58:26.237Z,66.65
2022-09-23T16:00:57.268Z,69.20
2022-09-23T16:03:28.609Z,71.30
2022-09-23T16:06:02.433Z,72.58
2022-09-23T16:08:33.027Z,74.35
2022-09-23T16:11:01.434Z,75.44
2022-09-23T16:13:29.525Z,75.97
2022-09-23T16:15:57.754Z,76.18
2022-09-23T16:18:25.875Z,76.70
2022-09-23T16:20:54.844Z,76.95
2022-09-23T16:23:34.656Z,76.96
2022-09-23T16:26:08.438Z,77.18
2022-09-23T16:28:36.489Z,77.07
2022-09-23T16:31:04.687Z,77.20
2022-09-23T16:33:32.979Z,77.54
2022-09-23T16:36:02.054Z,77.74
2022-09-23T16:38:34.003Z,78.10
2022-09-23T16:41:03.063Z,78.11
2022-09-23T16:43:39.545Z,78.32
2022-09-23T16:46:09.438Z,78.35
2022-09-23T16:48:40.590Z,78.32
2022-09-23T16:51:09.186Z,78.14
2022-09-23T16:53:39.330Z,78.31
2022-09-23T16:56:09.706Z,78.98
2022-09-23T16:58:37.518Z,78.98
2022-09-23T17:01:23.938Z,78.22
2022-09-23T17:03:52.186Z,77.75
2022-09-23T17:06:21.068Z,78.02
2022-09-23T17:08:51.185Z,77.95
2022-09-23T17:11:19.499Z,77.88
2022-09-23T17:13:47.811Z,78.13
2022-09-23T17:16:25.599Z,78.09
2022-09-23T17:18:56.097Z,77.74
2022-09-23T17:21:26.822Z,77.45
2022-09-23T17:23:57.929Z,77.48
2022-09-23T17:26:27.570Z,77.31
2022-09-23T17:28:58.051Z,77.34
2022-09-23T17:31:26.716Z,77.21
2022-09-23T17:33:55.047Z,77.45
2022-09-23T17:36:25.238Z,77.31
2022-09-23T17:38:54.596Z,77.35
2022-09-23T17:41:28.681Z,77.93
2022-09-23T17:44:00.558Z,77.70
2022-09-23T17:46:33.516Z,77.96
2022-09-23T17:49:05.778Z,77.99
2022-09-23T17:51:35.447Z,78.18
2022-09-23T17:54:03.899Z,78.36
2022-09-23T17:56:36.928Z,78.64
2022-09-23T17:59:06.992Z,78.40
2022-09-23T18:01:41.484Z,78.66
2022-09-23T18:04:09.665Z,78.77
2022-09-23T18:07:48.955Z,77.62
2022-09-23T18:09:40.124Z,75.42
2022-09-23T18:12:09.754Z,74.65
2022-09-23T18:14:45.171Z,73.81
2022-09-23T18:17:30.927Z,74.10
2022-09-23T18:20:01.290Z,73.63
2022-09-23T18:22:30.645Z,73.62
2022-09-23T18:24:59.069Z,73.72
2022-09-23T18:27:29.650Z,74.06
2022-09-23T18:30:00.924Z,73.87
2022-09-23T18:32:34.761Z,74.01
2022-09-23T18:35:03.348Z,74.21
2022-09-23T18:37:33.386Z,74.17
2022-09-23T18:40:01.716Z,74.37
2022-09-23T18:42:34.635Z,74.32
2022-09-23T18:45:03.045Z,74.06
2022-09-23T18:47:48.652Z,74.02
2022-09-23T18:50:34.423Z,73.92
2022-09-23T18:53:34.951Z,73.78
2022-09-23T18:55:54.025Z,74.10
2022-09-23T18:58:23.699Z,74.06
2022-09-23T19:00:56.935Z,74.13
2022-09-23T19:03:26.299Z,74.14
2022-09-23T19:05:56.380Z,74.17
2022-09-23T19:08:30.682Z,74.11
2022-09-23T19:11:03.151Z,73.93
2022-09-23T19:13:35.743Z,73.90
2022-09-23T19:16:05.208Z,73.77
2022-09-23T19:18:35.182Z,73.87
2022-09-23T19:21:12.833Z,73.96
2022-09-23T19:23:48.880Z,73.65
2022-09-23T19:26:20.146Z,73.71
2022-09-23T19:28:55.416Z,73.70
2022-09-23T19:31:26.487Z,73.58
2022-09-23T19:33:56.822Z,73.85
2022-09-23T19:36:27.057Z,73.86
2022-09-23T19:38:58.314Z,73.87
2022-09-23T19:41:28.323Z,73.93
2022-09-23T19:43:58.768Z,73.83
2022-09-23T19:46:37.448Z,73.96
2022-09-23T19:49:07.970Z,73.83
2022-09-23T19:51:38.824Z,74.07
2022-09-23T19:54:12.263Z,74.12
2022-09-23T19:56:41.332Z,74.06
2022-09-23T19:59:14.149Z,74.50
2022-09-23T20:01:47.644Z,74.74
2022-09-23T20:04:25.469Z,74.94
2022-09-23T20:06:54.313Z,74.97
2022-09-23T20:09:25.164Z,75.30
2022-09-23T20:12:00.398Z,75.61
2022-09-23T20:14:31.367Z,75.79
2022-09-23T20:17:23.436Z,76.21
2022-09-23T20:19:53.719Z,76.44
2022-09-23T20:22:32.924Z,76.88
2022-09-23T20:25:15.829Z,77.17
2022-09-23T20:27:43.036Z,77.52
2022-09-23T20:30:14.915Z,77.80
2022-09-23T20:32:44.899Z,77.77
2022-09-23T20:35:13.727Z,78.14
2022-09-23T20:37:45.228Z,77.97
2022-09-23T20:40:13.731Z,78.09
2022-09-23T20:42:46.165Z,77.98
2022-09-23T20:45:16.926Z,78.08
2022-09-23T20:47:45.440Z,77.86
2022-09-23T20:50:13.773Z,77.69
2022-09-23T20:52:42.369Z,77.68
2022-09-23T20:55:11.368Z,77.46
2022-09-23T20:57:39.926Z,77.33
2022-09-23T21:00:09.235Z,77.17
2022-09-23T21:02:38.779Z,77.18
2022-09-23T21:05:08.258Z,76.88
2022-09-23T21:07:37.880Z,76.95
2022-09-23T21:10:10.705Z,76.84
2022-09-23T21:12:38.907Z,76.93
2022-09-23T21:15:09.061Z,76.95
2022-09-23T21:17:38.557Z,77.20
2022-09-23T21:20:11.330Z,77.52
2022-09-23T21:22:39.602Z,77.85
2022-09-23T21:28:09.453Z,78.52
2022-09-23T21:30:41.992Z,78.59
2022-09-23T21:33:17.555Z,78.75
2022-09-23T21:35:46.977Z,78.84
2022-09-23T21:38:15.450Z,78.88
2022-09-23T21:40:58.751Z,79.09
2022-09-23T21:43:28.433Z,78.95
2022-09-23T21:45:59.709Z,79.22
2022-09-23T21:48:31.225Z,79.41
2022-09-23T21:51:01.169Z,79.28
2022-09-23T21:53:34.628Z,79.50
2022-09-23T21:56:05.025Z,79.48
2022-09-23T21:58:48.549Z,79.53
2022-09-23T22:01:18.661Z,79.54
2022-09-23T22:03:50.889Z,79.56
2022-09-23T22:06:21.671Z,79.38
2022-09-23T22:08:51.663Z,79.62
2022-09-23T22:11:38.723Z,79.82
2022-09-23T22:14:09.314Z,79.93
2022-09-23T22:16:40.653Z,80.12
2022-09-23T22:19:23.083Z,80.38
2022-09-23T22:21:52.681Z,80.19
2022-09-23T22:24:22.025Z,80.44
2022-09-23T22:26:50.583Z,80.67
2022-09-23T22:29:39.836Z,80.46
2022-09-23T22:33:16.622Z,80.73
2022-09-23T22:35:21.024Z,80.80
2022-09-23T22:37:55.351Z,80.88
2022-09-23T22:40:25.276Z,80.96
2022-09-23T22:42:56.305Z,80.96
2022-09-23T22:45:31.081Z,81.07
2022-09-23T22:48:11.388Z,81.11
2022-09-23T22:50:42.200Z,81.25
2022-09-23T22:53:13.075Z,81.23
2022-09-23T22:56:04.705Z,81.13
2022-09-23T22:58:34.085Z,81.02
2022-09-23T23:01:04.306Z,81.14
2022-09-23T23:03:45.241Z,81.17
2022-09-23T23:06:23.565Z,80.99
2022-09-23T23:09:00.181Z,80.96
2022-09-23T23:11:31.305Z,80.99
2022-09-23T23:14:02.828Z,81.23
2022-09-23T23:16:40.337Z,81.17
2022-09-23T23:19:34.477Z,81.13
2022-09-23T23:22:15.274Z,81.39
2022-09-23T23:24:45.065Z,81.42
2022-09-23T23:27:15.361Z,81.50
2022-09-23T23:29:45.540Z,81.55
2022-09-23T23:32:16.937Z,81.40
2022-09-23T23:34:47.347Z,81.61
2022-09-23T23:37:20.890Z,81.87
2022-09-23T23:39:51.544Z,81.88
2022-09-23T23:42:24.843Z,81.99
2022-09-23T23:44:56.748Z,82.00
2022-09-23T23:47:27.877Z,82.07
2022-09-23T23:49:58.558Z,82.13
2022-09-23T23:52:33.701Z,82.13
2022-09-23T23:55:06.804Z,81.93
2022-09-23T23:57:43.754Z,82.30
